Welcome to this demonstration website - Welkom op de demo website - Bienvenue sur ce site de démonstration - Willkommen auf dieser Demonstration Website


my webcam  My webcam


thunder radar more information blitzortung!


rain radar more information rain snow radar


visit our other weather sites:

Template documentation
and downloads

And another site



nearby metar reports

   
EBAW - Antwerp
updated: 24-07-2017 18:20
few clouds  
few clouds  
   wind: nw 20.4 km/h
wind: nw 20.4 km/h
temperature: 18°C
dew point: 12°C
humidity: 68%
barometer: 1010 hPa
clouds: Few Clouds
visibility: More than 10 km
cloud details: few clouds 883.9 m
EBAW 241620Z 32011KT 9999 FEW029CB 18/12 Q1010 TEMPO 4000 SHRA
EBLG - Liège
updated: 24-07-2017 18:20
partly cloudy  
partly cloudy  
   wind: varies 3.7 km/h
wind: varies 3.7 km/h
temperature: 14°C
dew point: 11°C
humidity: 82%
barometer: 1010 hPa
clouds: Partly Cloudy
visibility: More than 10 km
cloud details: partly cloudy 731.5 m
EBLG 241620Z VRB02KT 9999 SCT024 14/11 Q1010 NOSIG
EBCV - Mons/Bergen
updated: 24-07-2017 18:25
mostly cloudy  
mostly cloudy  
   wind: wnw 16.7 km/h
wind: wnw 16.7 km/h
temperature: 20°C
dew point: 11°C
humidity: 56%
barometer: 1011 hPa
clouds: Mostly Cloudy
visibility: More than 10 km
cloud details: few clouds 944.9 m,
mostly cloudy 2316.5 m
EBCV 241625Z AUTO 30009KT 9999 FEW031/// BKN076/// 20/11 Q1011 BLU
EHBK - Maastricht
updated: 24-07-2017 18:25
few clouds  
few clouds  
   wind: south 9.3 km/h
wind: south 9.3 km/h
temperature: 15°C
dew point: 13°C
humidity: 88%
barometer: 1010 hPa
clouds: Few Clouds
visibility: More than 10 km
cloud details: few clouds 457.2 m
EHBK 241625Z AUTO 18005KT 9999 FEW015CB 15/13 Q1010 TEMPO 6000 SHRA FEW015CB
ELLX - Luxemburg
updated: 24-07-2017 18:20
partly cloudy  
partly cloudy  
   wind: west 20.4 km/h
wind: west 20.4 km/h
temperature: 16°C
dew point: 11°C
humidity: 72%
barometer: 1011 hPa
clouds: Partly Cloudy
visibility: More than 10 km
cloud details: few clouds 579.1 m,
partly cloudy 731.5 m
ELLX 241620Z 26011KT 9999 FEW019 SCT024 16/11 Q1011 NOSIG
EBOS - Oostende
updated: 24-07-2017 18:20
partly cloudy  
partly cloudy  
   wind: nnw 18.5 km/h
wind: nnw 18.5 km/h
temperature: 18°C
dew point: 13°C
humidity: 73%
barometer: 1013 hPa
clouds: Partly Cloudy
visibility: More than 10 km
cloud details: few clouds 457.2 m,
partly cloudy 548.6 m
EBOS 241620Z 33010KT 9999 FEW015TCU SCT018 18/13 Q1013 NOSIG

script developed by  Saratoga-weather.org adapted for the template by  Weerstation Leuven

you find our weather info also at:

Het Weer Aktueel

UK Metoffice

European Weather Network

WeatherCloud

Weather Underground

benelux weather network

AWEKAS

WeatherlinkIP

Citizen Weather Observer Program (CWOP)

HAMweather, WeatherForYou, PWS Weather

equipment we use:

weather-station
Davis VP2+
Meteostick connected

weather-program
Meteobridge

weather-server
MeteobridgePro

Davis VP2+<br />Meteostick connected

Meteobridge

MeteobridgePro